• Join FlightAware (Why Join?)
  • Login
  • US Flag 
01:50AM EDT


 

Airport Tracker/Info


-or-


 

Live Flight TrackerFlight Track Log ✈ CES5276 ✈ 12-Jul-2013 ✈ ZLIC / INC - ZSPD / PVG

Flight Track Log - Related Links

Times and Time Zones

All times are in EDT time to prevent confusion due to time zone crossing. See the CES5276 flight status page for this flight to view local times or setup timezone preferences in your user account.

Time Position Orientation Groundspeed Altitude Reporting Facility
EDT Latitude Longitude Course Direction KTS MPH feet Rate Location/Type
08:54PM 36.2851 111.5176 115° Southeast  Level Estimated
08:55PM 36.2352 111.6335 118° Southeast  Level Estimated
08:56PM 36.1851 111.7492 118° Southeast  Level Estimated
08:57PM 36.1349 111.8648 118° Southeast  Level Estimated
08:58PM 36.0846 111.9802 118° Southeast  Level Estimated
08:59PM 36.0342 112.0955 118° Southeast  Level Estimated
09:00PM 35.9837 112.2106 118° Southeast  Level Estimated
09:01PM 35.9331 112.3256 119° Southeast  Level Estimated
09:02PM 35.8824 112.4405 119° Southeast  Level Estimated
09:03PM 35.8316 112.5552 119° Southeast  Level Estimated
09:04PM 35.7806 112.6697 119° Southeast  Level Estimated
09:05PM 35.7295 112.7841 119° Southeast  Level Estimated
09:06PM 35.6784 112.8984 119° Southeast  Level Estimated
09:07PM 35.6271 113.0125 119° Southeast  Level Estimated
09:08PM 35.5757 113.1264 119° Southeast  Level Estimated
09:09PM 35.5242 113.2402 119° Southeast  Level Estimated
09:10PM 35.4726 113.3539 119° Southeast  Level Estimated
09:11PM 35.4209 113.4674 119° Southeast  Level Estimated
09:12PM 35.3691 113.5808 119° Southeast  Level Estimated
09:13PM 35.3172 113.6940 119° Southeast  Level Estimated
09:14PM 35.2652 113.8071 119° Southeast  Level Estimated
09:15PM 35.2131 113.9201 119° Southeast  Level Estimated
09:16PM 35.1608 114.0329 120° Southeast  Level Estimated
09:17PM 35.1085 114.1455 120° Southeast  Level Estimated
09:18PM 35.0561 114.2580 120° Southeast  Level Estimated
09:19PM 35.0035 114.3704 120° Southeast  Level Estimated
09:20PM 34.9509 114.4826 120° Southeast  Level Estimated
09:21PM 34.8981 114.5947 120° Southeast  Level Estimated
09:22PM 34.8453 114.7066 120° Southeast  Level Estimated
09:23PM 34.7923 114.8184 120° Southeast  Level Estimated
09:24PM 34.7393 114.9300 120° Southeast  Level Estimated
09:25PM 34.6861 115.0415 120° Southeast  Level Estimated
09:26PM 34.6329 115.1529 120° Southeast  Level Estimated
09:27PM 34.5795 115.2641 120° Southeast  Level Estimated
09:28PM 34.5260 115.3752 120° Southeast  Level Estimated
09:29PM 34.4725 115.4861 120° Southeast  Level Estimated
09:30PM 34.4188 115.5969 120° Southeast  Level Estimated
09:31PM 34.3651 115.7075 120° Southeast  Level Estimated
09:32PM 34.3112 115.8180 121° Southeast  Level Estimated
09:33PM 34.2572 115.9284 121° Southeast  Level Estimated
09:34PM 34.2032 116.0386 121° Southeast  Level Estimated
09:35PM 34.1490 116.1487 121° Southeast  Level Estimated
09:36PM 34.0948 116.2586 121° Southeast  Level Estimated
09:37PM 34.0404 116.3684 121° Southeast  Level Estimated
09:38PM 33.9860 116.4780 121° Southeast  Level Estimated
09:39PM 33.9314 116.5875 121° Southeast  Level Estimated
09:40PM 33.8768 116.6969 121° Southeast  Level Estimated
09:41PM 33.8220 116.8061 121° Southeast  Level Estimated
09:42PM 33.7672 116.9152 121° Southeast  Level Estimated
09:43PM 33.7123 117.0242 121° Southeast  Level Estimated
09:44PM 33.6572 117.1330 121° Southeast  Level Estimated
09:45PM 33.6021 117.2417 121° Southeast  Level Estimated
09:46PM 33.5469 117.3502 121° Southeast  Level Estimated
09:47PM 33.4916 117.4586 121° Southeast  Level Estimated
09:48PM 33.4362 117.5668 121° Southeast  Level Estimated
09:49PM 33.3807 117.6750 122° Southeast  Level Estimated
09:50PM 33.3251 117.7829 122° Southeast  Level Estimated
09:51PM 33.2694 117.8908 122° Southeast  Level Estimated
09:52PM 33.2136 117.9985 122° Southeast  Level Estimated
09:53PM 33.1577 118.1061 122° Southeast  Level Estimated
09:54PM 33.1018 118.2135 122° Southeast  Level Estimated
09:55PM 33.0457 118.3208 122° Southeast  Level Estimated
09:56PM 32.9896 118.4279 122° Southeast  Level Estimated
09:57PM 32.9333 118.5350 122° Southeast  Level Estimated
09:58PM 32.8770 118.6418 122° Southeast  Level Estimated
09:59PM 32.8206 118.7486 122° Southeast  Level Estimated
10:00PM 32.7641 118.8552 122° Southeast  Level Estimated
10:01PM 32.7075 118.9617 122° Southeast  Level Estimated
10:02PM 32.6508 119.0680 122° Southeast  Level Estimated
10:03PM 32.5940 119.1742 122° Southeast  Level Estimated
10:04PM 32.5371 119.2803 122° Southeast  Level Estimated
10:05PM 32.4802 119.3862 122° Southeast  Level Estimated
10:06PM 32.4231 119.4920 123° Southeast  Level Estimated
10:07PM 32.3660 119.5977 123° Southeast  Level Estimated
10:08PM 32.3088 119.7032 123° Southeast  Level Estimated
10:09PM 32.2515 119.8086 123° Southeast  Level Estimated
10:10PM 32.1941 119.9139 123° Southeast  Level Estimated
10:11PM 32.1366 120.0191 123° Southeast  Level Estimated
10:12PM 32.0790 120.1241 123° Southeast  Level Estimated
10:13PM 32.0213 120.2289 123° Southeast  Level Estimated
10:14PM 31.9636 120.3337 123° Southeast  Level Estimated
10:15PM 31.9058 120.4383 123° Southeast  Level Estimated
10:16PM 31.8478 120.5428 123° Southeast  Level Estimated
10:17PM 31.7898 120.6471 123° Southeast  Level Estimated
10:18PM 31.7318 120.7513 123° Southeast  Level Estimated
10:19PM 31.6736 120.8554 123° Southeast  Level Estimated
10:20PM 31.6153 120.9594 123° Southeast  Level Estimated
10:21PM 31.5570 121.0632 123° Southeast  Level Estimated
10:22PM 31.4986 121.1669 123° Southeast  Level Estimated
10:23PM 31.4400 121.2704 123° Southeast  Level Estimated
10:24PM 31.3815 121.3739 124° Southeast  Level Estimated
10:25PM 31.3228 121.4772 124° Southeast  Level Estimated
10:26PM 31.2640 121.5804 124° Southeast  Level Estimated
10:27PM 31.2052 121.6834 124° Southeast  Level Estimated
10:28PM 31.1462 121.7863 124° Southeast  Level Estimated
10:29PM 31.1428 121.7924 124° Southeast  Level Estimated
10:30PM 31.1428 121.7924 221° Southwest  Level Estimated
10:31PM 31.1428 121.7924 221° Southwest  Level Estimated
10:32PM 31.1428 121.7924 221° Southwest  Level Estimated
10:33PM 31.1428 121.7924 221° Southwest  Level Estimated
10:34PM 31.1428 121.7924 221° Southwest  Level Estimated
10:35PM 31.1428 121.7924 221° Southwest  Level Estimated
10:36PM 31.1428 121.7924 221° Southwest  Level Estimated